Current Conditions - Area Ports

 

CYWH - Victoria Harbour, British Columbia, Canada
Distance from station: WSW 10km
Updated: 11/18/2018 5:00pm
Partly cloudy
Partly cloudy
 Wind from varies
Wind: varies 4 km/h
Temperature: 8°C
Dew Point: 3°C
Humidity: 71%
Barometer: 1022 hPa
Clouds: Partly cloudy
Visibility: 24 km
Cloud details: Partly cloudy 7620 m
2018/11/19 01:00 CYWH 190100Z VRB02KT 15SM SCT250 08/03 A3018 RMK CI3 SLP220
KFHR - Friday Harbor, Washington, USA
Distance from station: ENE 19km
Updated: 11/18/2018 4:53pm
Clear
Clear
 Wind from NW
Wind: NW 6 km/h
Temperature: 6°C
Dew Point: 2°C
Humidity: 76%
Barometer: 1022 hPa
Clouds: Clear
Visibility: 16 km
2018/11/19 00:53 KFHR 190053Z AUTO 32003KT 10SM CLR 06/02 A3018 RMK AO2 SLP220 T00560022
 
KORS - Eastsound/Orcas, Washington, USA
Distance from station: NE 38km
Updated: 11/18/2018 5:15pm
Clear
Clear
 Wind from calm
Wind: Calm
Temperature: 5°C
Dew Point: 4°C
Humidity: 93%
Barometer: 1021.7 hPa
Clouds: Clear
Visibility: 16 km
2018/11/19 01:15 KORS 190115Z AUTO 00000KT 10SM CLR 05/04 A3017 RMK AO2
KNUW - Whidbey Is. Nas, Washington, USA
Distance from station: ESE 47km
Updated: 11/18/2018 4:56pm
Few Clouds
Few Clouds
 Wind from ESE
Wind: ESE 6 km/h
Temperature: 8°C
Dew Point: 1°C
Humidity: 62%
Barometer: 1023 hPa
Clouds: Few Clouds
Visibility: 16 km
Cloud details: Few Clouds 6706 m
2018/11/19 00:56 KNUW 190056Z 11003KT 10SM FEW220 08/01 A3021 RMK AO2 SLP230 T00830006 $
 
CWEZ - Saturna Isl (map, British Columbia, Canada
Distance from station: NNE 40km
Updated: 11/18/2018 5:00pm

 Wind from NW
Wind: NW 7 km/h
Temperature: 6°C
Wind Chill: 4°C
Dew Point: 4°C
Humidity: 87%
2018/11/19 01:00 CWEZ 190100Z AUTO 31004KT 06/04 RMK AO1 SLP216 T00580035 57006
CYCD - Nanaimo Airport, British Columbia, Canada
Distance from station: NW 80km
Updated: 11/18/2018 5:00pm
Few Clouds
Few Clouds
 Wind from WSW
Wind: WSW 6 km/h
Temperature: 4°C
Dew Point: 2°C
Humidity: 87%
Barometer: 1022 hPa
Clouds: Few Clouds
Visibility: 48 km
Cloud details: Few Clouds 6401 m
2018/11/19 01:00 CYCD 190100Z 25003KT 30SM FEW210 04/02 A3018 RMK CI1 SLP224
 
CWVF - Sand Heads (ls), British Columbia, Canada
Distance from station: N 72km
Updated: 11/18/2018 5:00pm

 Wind from NW
Wind: NW 9 km/h
Temperature: 7°C
Wind Chill: 6°C
Dew Point: 5°C
Humidity: 87%
2018/11/19 01:00 CWVF 190100Z AUTO 31005KT 07/05 RMK AO1 T00710053
CWQK - Race Rocks Autob, British Columbia, Canada
Distance from station: SW 26km
Updated: 11/18/2018 5:00pm

 Wind from NE
Wind: NE 26 km/h
Temperature: 8°C
Wind Chill: 4°C
Dew Point: 3°C
Humidity: 71%
2018/11/19 01:00 CWQK 190100Z AUTO 05014KT 08/03 RMK AO1 SLP215 T00830033 58005
 
CWSP - Sheringham Autob, British Columbia, Canada
Distance from station: W 49km
Updated: 10/31/2018 9:00pm
NOT Current

 Wind from WNW
Wind: WNW 31 km/h
2018/11/01 04:00 CWSP 010400Z AUTO 29017KT RMK AO1 PK WND 29021/0355 51012